createdAt,value
2023-03-16T00:01:41.029Z,99113.16
2023-03-16T00:04:09.029Z,99111.47
2023-03-16T00:06:38.361Z,99121.91
2023-03-16T00:09:06.360Z,99110.63
2023-03-16T00:11:34.315Z,99129.03
2023-03-16T00:14:04.186Z,99126.00
2023-03-16T00:16:32.195Z,99120.94
2023-03-16T00:19:00.644Z,99123.69
2023-03-16T00:21:30.619Z,99117.63
2023-03-16T00:24:00.062Z,99124.81
2023-03-16T00:26:28.185Z,99128.63
2023-03-16T00:28:56.140Z,99127.44
2023-03-16T00:31:25.231Z,99124.13
2023-03-16T00:33:53.474Z,99126.94
2023-03-16T00:36:22.879Z,99119.16
2023-03-16T00:38:51.340Z,99114.97
2023-03-16T00:41:22.968Z,99115.53
2023-03-16T00:43:51.838Z,99115.84
2023-03-16T00:46:19.981Z,99107.91
2023-03-16T00:48:48.975Z,99103.25
2023-03-16T00:51:19.176Z,99091.69
2023-03-16T00:53:48.398Z,99090.53
2023-03-16T00:56:17.805Z,99090.53
2023-03-16T00:58:47.656Z,99081.38
2023-03-16T01:01:18.278Z,99088.25
2023-03-16T01:03:47.632Z,99082.50
2023-03-16T01:06:20.924Z,99088.06
2023-03-16T01:08:48.874Z,99082.81
2023-03-16T01:11:18.585Z,99077.91
2023-03-16T01:13:49.522Z,99079.84
2023-03-16T01:16:19.041Z,99067.03
2023-03-16T01:18:47.812Z,99079.63
2023-03-16T01:21:15.977Z,99075.59
2023-03-16T01:23:44.521Z,99080.03
2023-03-16T01:26:13.080Z,99073.59
2023-03-16T01:28:40.959Z,99068.56
2023-03-16T01:31:12.697Z,99072.69
2023-03-16T01:33:41.207Z,99061.47
2023-03-16T01:36:12.984Z,99052.84
2023-03-16T01:38:41.259Z,99064.13
2023-03-16T01:41:09.956Z,99060.91
2023-03-16T01:43:40.459Z,99051.94
2023-03-16T01:46:19.214Z,99051.72
2023-03-16T01:48:56.176Z,99049.94
2023-03-16T01:51:29.335Z,99046.09
2023-03-16T01:54:00.358Z,99040.03
2023-03-16T01:56:35.075Z,99049.94
2023-03-16T01:59:07.054Z,99054.50
2023-03-16T02:01:36.959Z,99057.72
2023-03-16T02:04:15.106Z,99050.44
2023-03-16T02:06:44.637Z,99049.81
2023-03-16T02:09:13.295Z,99046.72
2023-03-16T02:11:41.655Z,99050.84
2023-03-16T02:14:12.092Z,99061.19
2023-03-16T02:16:42.528Z,99060.56
2023-03-16T02:19:15.182Z,99051.34
2023-03-16T02:21:54.605Z,99050.44
2023-03-16T02:24:22.581Z,99048.63
2023-03-16T02:26:56.160Z,99031.22
2023-03-16T02:29:54.189Z,99046.16
2023-03-16T02:32:24.263Z,99048.22
2023-03-16T02:34:52.187Z,99050.22
2023-03-16T02:37:20.266Z,99041.81
2023-03-16T02:39:48.178Z,99033.66
2023-03-16T02:42:19.549Z,99041.09
2023-03-16T02:44:52.117Z,99020.19
2023-03-16T02:47:28.385Z,99029.72
2023-03-16T02:49:56.256Z,99014.38
2023-03-16T02:52:24.149Z,99018.59
2023-03-16T02:54:52.010Z,99019.47
2023-03-16T02:57:19.912Z,99007.16
2023-03-16T02:59:47.875Z,99006.59
2023-03-16T03:02:17.187Z,99007.72
2023-03-16T03:04:46.337Z,99000.72
2023-03-16T03:07:14.628Z,98997.00
2023-03-16T03:09:43.287Z,98999.78
2023-03-16T03:12:11.804Z,99006.09
2023-03-16T03:14:40.627Z,99004.47
2023-03-16T03:17:10.100Z,99003.06
2023-03-16T03:19:39.372Z,98995.53
2023-03-16T03:22:07.442Z,98996.88
2023-03-16T03:24:36.307Z,98983.91
2023-03-16T03:27:05.863Z,98986.59
2023-03-16T03:29:35.397Z,98996.19
2023-03-16T03:32:03.501Z,98989.34
2023-03-16T03:34:32.133Z,98986.03
2023-03-16T03:37:01.498Z,98990.00
2023-03-16T03:39:29.450Z,98989.94
2023-03-16T03:41:57.370Z,98987.44
2023-03-16T03:44:27.048Z,98984.69
2023-03-16T03:46:55.042Z,98980.47
2023-03-16T03:49:23.000Z,98982.38
2023-03-16T03:51:51.409Z,98979.97
2023-03-16T03:54:20.750Z,98978.22
2023-03-16T03:56:48.643Z,98973.25
2023-03-16T03:59:16.520Z,98975.72
2023-03-16T04:01:44.944Z,98966.72
2023-03-16T04:04:12.852Z,98983.88
2023-03-16T04:06:41.753Z,98977.19
2023-03-16T04:09:10.032Z,98982.75
2023-03-16T04:11:39.549Z,98992.91
2023-03-16T04:14:07.791Z,98992.53
2023-03-16T04:16:35.937Z,98989.03
2023-03-16T04:19:04.426Z,98986.88
2023-03-16T04:21:32.359Z,98990.06
2023-03-16T04:24:01.516Z,98989.13
2023-03-16T04:26:29.582Z,98981.78
2023-03-16T04:28:59.076Z,98992.69
2023-03-16T04:31:27.305Z,98982.69
2023-03-16T04:33:55.333Z,98988.19
2023-03-16T04:36:24.655Z,98984.47
2023-03-16T04:38:52.831Z,98978.81
2023-03-16T04:41:21.091Z,98980.94
2023-03-16T04:43:48.975Z,98972.06
2023-03-16T04:46:18.300Z,98977.88
2023-03-16T04:48:46.292Z,98974.47
2023-03-16T04:51:14.240Z,98978.94
2023-03-16T04:53:42.203Z,98972.38
2023-03-16T04:56:10.113Z,98975.56
2023-03-16T04:58:37.951Z,98966.13
2023-03-16T05:01:06.106Z,98962.50
2023-03-16T05:03:35.926Z,98955.00
2023-03-16T05:06:03.882Z,98961.00
2023-03-16T05:08:32.110Z,98966.06
2023-03-16T05:11:00.419Z,98964.81
2023-03-16T05:13:28.380Z,98954.63
2023-03-16T05:15:56.362Z,98954.22
2023-03-16T05:18:24.884Z,98957.34
2023-03-16T05:20:56.538Z,98949.06
2023-03-16T05:23:25.018Z,98950.28
2023-03-16T05:25:52.896Z,98952.47
2023-03-16T05:28:20.769Z,98948.28
2023-03-16T05:30:48.686Z,98953.31
2023-03-16T05:33:16.607Z,98947.81
2023-03-16T05:35:44.525Z,98961.41
2023-03-16T05:38:15.894Z,98961.84
2023-03-16T05:40:43.892Z,98957.63
2023-03-16T05:43:11.758Z,98957.41
2023-03-16T05:45:39.650Z,98960.44
2023-03-16T05:48:07.721Z,98970.13
2023-03-16T05:50:35.662Z,98963.53
2023-03-16T05:53:04.345Z,98969.88
2023-03-16T05:55:33.622Z,98982.28
2023-03-16T05:58:04.390Z,98969.81
2023-03-16T06:00:33.637Z,98973.94
2023-03-16T06:03:01.695Z,98974.13
2023-03-16T06:05:30.486Z,98973.28
2023-03-16T06:07:58.352Z,98975.44
2023-03-16T06:10:27.028Z,98976.56
2023-03-16T06:12:57.113Z,98979.34
2023-03-16T06:15:26.632Z,98979.38
2023-03-16T06:17:54.499Z,98972.66
2023-03-16T06:20:22.707Z,98977.16
2023-03-16T06:22:50.560Z,98970.88
2023-03-16T06:25:18.815Z,98969.19
2023-03-16T06:27:46.814Z,98966.31
2023-03-16T06:30:17.303Z,98967.81
2023-03-16T06:32:46.387Z,98977.22
2023-03-16T06:35:14.997Z,98980.16
2023-03-16T06:37:44.023Z,98952.69
2023-03-16T06:40:13.468Z,98984.47
2023-03-16T06:42:41.403Z,98984.56
2023-03-16T06:45:11.196Z,98981.50
2023-03-16T06:47:40.410Z,98988.66
2023-03-16T06:50:09.158Z,98984.47
2023-03-16T06:52:37.133Z,98985.25
2023-03-16T06:55:05.612Z,98974.28
2023-03-16T06:57:33.477Z,98959.09
2023-03-16T07:00:03.535Z,98944.75
2023-03-16T07:02:32.307Z,98939.44
2023-03-16T07:05:01.581Z,98936.38
2023-03-16T07:07:31.271Z,98947.13
2023-03-16T07:09:59.153Z,98950.34
2023-03-16T07:12:27.108Z,98933.66
2023-03-16T07:14:54.995Z,98935.22
2023-03-16T07:17:22.887Z,98916.31
2023-03-16T07:19:50.847Z,98912.09
2023-03-16T07:22:20.066Z,98911.56
2023-03-16T07:24:51.912Z,98903.63
2023-03-16T07:27:19.797Z,98913.66
2023-03-16T07:29:47.656Z,98913.69
2023-03-16T07:32:15.526Z,98900.59
2023-03-16T07:34:44.558Z,98896.69
2023-03-16T07:37:18.357Z,98884.88
2023-03-16T07:39:52.569Z,98892.72
2023-03-16T07:42:23.111Z,98899.09
2023-03-16T07:44:52.133Z,98906.25
2023-03-16T07:47:23.833Z,98918.88
2023-03-16T07:49:56.152Z,98934.13
2023-03-16T07:52:24.228Z,98934.69
2023-03-16T07:54:53.552Z,98945.97
2023-03-16T07:57:21.734Z,98942.94
2023-03-16T07:59:49.678Z,98932.56
2023-03-16T08:02:21.674Z,98930.22
2023-03-16T08:04:49.663Z,98932.16
2023-03-16T08:07:17.572Z,98934.78
2023-03-16T08:09:46.144Z,98931.03
2023-03-16T08:12:15.782Z,98932.31
2023-03-16T08:14:45.507Z,98935.88
2023-03-16T08:17:13.869Z,98938.75
2023-03-16T08:19:42.783Z,98934.88
2023-03-16T08:22:10.760Z,98936.84
2023-03-16T08:24:39.370Z,98940.59
2023-03-16T08:27:09.961Z,98948.38
2023-03-16T08:29:40.888Z,98945.69
2023-03-16T08:32:08.884Z,98947.97
2023-03-16T08:34:36.974Z,98949.09
2023-03-16T08:37:05.020Z,98948.28
2023-03-16T08:39:33.609Z,98938.53
2023-03-16T08:42:01.493Z,98943.34
2023-03-16T08:44:29.481Z,98937.13
2023-03-16T08:46:59.421Z,98936.38
2023-03-16T08:49:27.362Z,98931.63
2023-03-16T08:51:55.398Z,98930.81
2023-03-16T08:54:23.803Z,98936.28
2023-03-16T08:56:51.852Z,98931.72
2023-03-16T08:59:29.429Z,98916.13
2023-03-16T09:02:00.637Z,98900.56
2023-03-16T09:04:30.128Z,98893.66
2023-03-16T09:07:08.318Z,98899.63
2023-03-16T09:09:37.673Z,98881.00
2023-03-16T09:12:06.675Z,98903.63
2023-03-16T09:14:35.424Z,98896.25
2023-03-16T09:17:05.240Z,98886.97
2023-03-16T09:19:50.086Z,98881.78
2023-03-16T09:22:19.810Z,98879.66
2023-03-16T09:24:48.545Z,98878.47
2023-03-16T09:27:16.917Z,98870.41
2023-03-16T09:29:45.553Z,98869.69
2023-03-16T09:32:15.460Z,98863.47
2023-03-16T09:34:43.430Z,98866.88
2023-03-16T09:37:11.604Z,98867.38
2023-03-16T09:39:39.766Z,98863.50
2023-03-16T09:42:15.722Z,98863.56
2023-03-16T09:44:55.440Z,98859.63
2023-03-16T09:47:28.707Z,98860.47
2023-03-16T09:50:00.100Z,98863.16
2023-03-16T09:52:36.275Z,98852.66
2023-03-16T09:55:12.070Z,98852.91
2023-03-16T09:57:43.266Z,98850.94
2023-03-16T10:00:18.480Z,98857.84
2023-03-16T10:03:00.101Z,98851.22
2023-03-16T10:05:28.779Z,98850.94
2023-03-16T10:08:07.940Z,98846.66
2023-03-16T10:10:59.795Z,98850.53
2023-03-16T10:13:35.317Z,98845.56
2023-03-16T10:16:09.547Z,98847.56
2023-03-16T10:18:45.002Z,98847.19
2023-03-16T10:21:15.342Z,98856.28
2023-03-16T10:23:43.952Z,98859.16
2023-03-16T10:26:16.097Z,98850.06
2023-03-16T10:28:45.696Z,98832.88
2023-03-16T10:31:14.793Z,98835.09
2023-03-16T10:33:44.141Z,98832.56
2023-03-16T10:36:17.172Z,98840.06
2023-03-16T10:38:49.274Z,98831.28
2023-03-16T10:41:28.212Z,98827.06
2023-03-16T10:43:58.500Z,98817.78
2023-03-16T10:46:28.444Z,98827.63
2023-03-16T10:49:01.389Z,98832.81
2023-03-16T10:51:32.001Z,98824.84
2023-03-16T10:54:10.993Z,98832.72
2023-03-16T10:56:40.382Z,98834.81
2023-03-16T10:59:17.212Z,98821.56
2023-03-16T11:01:50.218Z,98826.31
2023-03-16T11:04:20.824Z,98835.00
2023-03-16T11:06:53.901Z,98829.91
2023-03-16T11:09:26.185Z,98820.59
2023-03-16T11:11:54.098Z,98823.88
2023-03-16T11:14:26.220Z,98812.66
2023-03-16T11:17:02.344Z,98819.19
2023-03-16T11:19:35.780Z,98821.28
2023-03-16T11:22:08.385Z,98815.09
2023-03-16T11:24:46.151Z,98814.63
2023-03-16T11:27:23.099Z,98815.41
2023-03-16T11:30:00.850Z,98808.03
2023-03-16T11:32:32.272Z,98809.25
2023-03-16T11:35:04.620Z,98800.84
2023-03-16T11:37:46.277Z,98804.41
2023-03-16T11:40:29.156Z,98801.22
2023-03-16T11:43:07.140Z,98801.16
2023-03-16T11:45:42.914Z,98797.66
2023-03-16T11:48:43.999Z,98791.69
2023-03-16T11:51:25.673Z,98789.91
2023-03-16T11:54:04.134Z,98783.38
2023-03-16T11:56:35.899Z,98798.56
2023-03-16T11:59:40.873Z,98789.06
2023-03-16T12:02:32.090Z,98780.31
2023-03-16T12:05:22.336Z,98775.22
2023-03-16T12:08:01.677Z,98776.06
2023-03-16T12:10:33.105Z,98763.84
2023-03-16T12:13:21.205Z,98757.59
2023-03-16T12:15:53.507Z,98766.50
2023-03-16T12:18:27.480Z,98754.91
2023-03-16T12:20:59.892Z,98749.34
2023-03-16T12:23:34.660Z,98758.19
2023-03-16T12:26:03.784Z,98738.97
2023-03-16T12:28:33.593Z,98739.75
2023-03-16T12:31:12.211Z,98739.88
2023-03-16T12:34:02.378Z,98728.06
2023-03-16T12:37:10.234Z,98718.06
2023-03-16T12:39:59.223Z,98733.69
2023-03-16T12:42:43.718Z,98727.59
2023-03-16T12:45:17.849Z,98741.19
2023-03-16T12:47:53.362Z,98744.16
2023-03-16T12:50:21.933Z,98737.44
2023-03-16T12:52:52.114Z,98735.03
2023-03-16T12:55:28.092Z,98726.66
2023-03-16T12:58:03.056Z,98728.03
2023-03-16T13:00:35.884Z,98721.66
2023-03-16T13:03:05.241Z,98709.34
2023-03-16T13:05:35.693Z,98717.44
2023-03-16T13:08:10.660Z,98712.34
2023-03-16T13:10:41.847Z,98717.06
2023-03-16T13:13:13.124Z,98703.28
2023-03-16T13:15:41.854Z,98698.66
2023-03-16T13:18:25.468Z,98695.97
2023-03-16T13:20:59.180Z,98696.25
2023-03-16T13:23:30.227Z,98694.25
2023-03-16T13:26:18.812Z,98680.22
2023-03-16T13:28:54.083Z,98677.88
2023-03-16T13:31:28.087Z,98669.47
2023-03-16T13:34:00.429Z,98672.59
2023-03-16T13:36:29.878Z,98676.56
2023-03-16T13:39:05.209Z,98675.22
2023-03-16T13:41:34.488Z,98668.13
2023-03-16T13:44:02.965Z,98651.50
2023-03-16T13:46:31.901Z,98664.34
2023-03-16T13:49:00.845Z,98656.03
2023-03-16T13:51:32.041Z,98654.47
2023-03-16T13:54:00.100Z,98629.50
2023-03-16T13:56:29.491Z,98643.88
2023-03-16T13:59:01.197Z,98642.13
2023-03-16T14:01:32.121Z,98639.94
2023-03-16T14:04:08.680Z,98636.66
2023-03-16T14:06:37.922Z,98637.22
2023-03-16T14:09:08.172Z,98636.38
2023-03-16T14:11:36.154Z,98630.19
2023-03-16T14:14:16.059Z,98635.84
2023-03-16T14:16:45.745Z,98630.25
2023-03-16T14:19:20.402Z,98628.41
2023-03-16T14:21:48.377Z,98632.66
2023-03-16T14:24:25.433Z,98621.53
2023-03-16T14:26:53.322Z,98636.84
2023-03-16T14:29:26.597Z,98632.75
2023-03-16T14:31:55.568Z,98618.72
2023-03-16T14:34:30.069Z,98625.16
2023-03-16T14:37:09.431Z,98609.28
2023-03-16T14:39:37.578Z,98614.91
2023-03-16T14:42:08.004Z,98606.91
2023-03-16T14:44:40.873Z,98604.59
2023-03-16T14:47:09.853Z,98610.00
2023-03-16T14:49:41.521Z,98616.34
2023-03-16T14:52:22.303Z,98614.50
2023-03-16T14:54:52.052Z,98613.09
2023-03-16T14:57:20.287Z,98607.19
2023-03-16T14:59:49.884Z,98611.84
2023-03-16T15:02:20.426Z,98609.88
2023-03-16T15:04:49.824Z,98612.66
2023-03-16T15:07:26.097Z,98612.66
2023-03-16T15:09:56.049Z,98604.50
2023-03-16T15:12:26.441Z,98609.41
2023-03-16T15:15:13.698Z,98591.16
2023-03-16T15:17:45.173Z,98610.28
2023-03-16T15:20:15.870Z,98600.88
2023-03-16T15:22:46.439Z,98612.38
2023-03-16T15:25:31.056Z,98603.94
2023-03-16T15:27:59.267Z,98613.47
2023-03-16T15:30:30.802Z,98616.25
2023-03-16T15:32:58.931Z,98620.88
2023-03-16T15:35:28.040Z,98615.97
2023-03-16T15:37:56.525Z,98602.81
2023-03-16T15:40:27.389Z,98604.88
2023-03-16T15:42:55.709Z,98600.13
2023-03-16T15:45:25.480Z,98607.72
2023-03-16T15:47:55.308Z,98579.31
2023-03-16T15:50:25.843Z,98586.34
2023-03-16T15:52:58.215Z,98595.88
2023-03-16T15:55:33.181Z,98592.38
2023-03-16T15:58:03.723Z,98605.59
2023-03-16T16:00:35.079Z,98600.44
2023-03-16T16:03:07.385Z,98582.59
2023-03-16T16:05:36.282Z,98585.97
2023-03-16T16:08:08.159Z,98599.75
2023-03-16T16:10:39.706Z,98589.22
2023-03-16T16:13:07.846Z,98577.84
2023-03-16T16:15:37.719Z,98586.81
2023-03-16T16:18:26.570Z,98571.66
2023-03-16T16:20:56.377Z,98576.16
2023-03-16T16:23:25.112Z,98576.97
2023-03-16T16:25:54.470Z,98580.66
2023-03-16T16:28:25.185Z,98570.66
2023-03-16T16:30:53.157Z,98574.28
2023-03-16T16:33:27.602Z,98573.47
2023-03-16T16:35:57.474Z,98563.16
2023-03-16T16:38:26.138Z,98557.69
2023-03-16T16:40:55.237Z,98564.97
2023-03-16T16:43:33.459Z,98558.72
2023-03-16T16:46:03.426Z,98560.53
2023-03-16T16:48:36.772Z,98562.75
2023-03-16T16:51:07.061Z,98546.28
2023-03-16T16:53:35.735Z,98545.72
2023-03-16T16:56:04.959Z,98554.09
2023-03-16T16:58:33.308Z,98556.97
2023-03-16T17:01:02.036Z,98549.31
2023-03-16T17:03:30.870Z,98555.16
2023-03-16T17:06:00.292Z,98546.81
2023-03-16T17:08:29.588Z,98556.88
2023-03-16T17:10:58.527Z,98554.28
2023-03-16T17:13:31.148Z,98549.97
2023-03-16T17:16:00.242Z,98552.44
2023-03-16T17:18:28.785Z,98549.75
2023-03-16T17:20:58.034Z,98558.66
2023-03-16T17:23:31.263Z,98565.47
2023-03-16T17:26:01.857Z,98557.47
2023-03-16T17:28:32.804Z,98554.63
2023-03-16T17:31:00.880Z,98556.66
2023-03-16T17:33:29.690Z,98547.28
2023-03-16T17:35:57.695Z,98547.53
2023-03-16T17:38:26.558Z,98535.59
2023-03-16T17:40:56.611Z,98553.47
2023-03-16T17:43:26.359Z,98539.38
2023-03-16T17:45:54.593Z,98541.41
2023-03-16T17:48:26.183Z,98547.81
2023-03-16T17:50:55.404Z,98548.88
2023-03-16T17:53:23.387Z,98546.09
2023-03-16T17:55:51.389Z,98528.22
2023-03-16T17:58:27.984Z,98549.22
2023-03-16T18:00:56.491Z,98536.53
2023-03-16T18:03:29.362Z,98540.34
2023-03-16T18:05:58.605Z,98532.13
2023-03-16T18:08:28.442Z,98536.75
2023-03-16T18:10:58.757Z,98542.75
2023-03-16T18:13:30.685Z,98525.38
2023-03-16T18:15:59.473Z,98526.06
2023-03-16T18:18:29.332Z,98534.84
2023-03-16T18:21:00.449Z,98529.66
2023-03-16T18:23:30.883Z,98527.59
2023-03-16T18:26:02.288Z,98529.28
2023-03-16T18:28:33.001Z,98527.06
2023-03-16T18:31:03.006Z,98529.88
2023-03-16T18:33:33.701Z,98533.72
2023-03-16T18:36:04.939Z,98536.75
2023-03-16T18:38:34.727Z,98523.09
2023-03-16T18:41:11.758Z,98523.28
2023-03-16T18:43:41.625Z,98511.28
2023-03-16T18:46:25.254Z,98525.16
2023-03-16T18:48:55.984Z,98529.63
2023-03-16T18:51:25.387Z,98528.47
2023-03-16T18:53:54.686Z,98537.38
2023-03-16T18:56:24.819Z,98530.81
2023-03-16T18:58:55.386Z,98544.16
2023-03-16T19:01:25.938Z,98539.94
2023-03-16T19:03:55.946Z,98534.19
2023-03-16T19:06:29.769Z,98543.31
2023-03-16T19:09:00.171Z,98539.94
2023-03-16T19:11:28.478Z,98531.03
2023-03-16T19:13:57.762Z,98525.94
2023-03-16T19:16:25.765Z,98519.41
2023-03-16T19:18:53.706Z,98526.84
2023-03-16T19:21:23.672Z,98523.16
2023-03-16T19:23:58.036Z,98526.53
2023-03-16T19:26:26.327Z,98530.22
2023-03-16T19:28:54.463Z,98529.47
2023-03-16T19:31:28.116Z,98536.59
2023-03-16T19:33:57.057Z,98531.44
2023-03-16T19:36:27.217Z,98532.97
2023-03-16T19:38:55.285Z,98533.03
2023-03-16T19:41:26.979Z,98519.47
2023-03-16T19:43:57.859Z,98520.25
2023-03-16T19:46:28.397Z,98528.28
2023-03-16T19:48:57.283Z,98522.50
2023-03-16T19:51:29.032Z,98524.97
2023-03-16T19:53:56.996Z,98514.84
2023-03-16T19:56:26.847Z,98519.06
2023-03-16T19:58:55.750Z,98515.22
2023-03-16T20:01:32.421Z,98510.88
2023-03-16T20:04:01.595Z,98505.59
2023-03-16T20:06:29.593Z,98508.28
2023-03-16T20:08:57.490Z,98503.94
2023-03-16T20:11:29.833Z,98504.41
2023-03-16T20:13:59.202Z,98502.06
2023-03-16T20:16:31.159Z,98504.88
2023-03-16T20:19:00.749Z,98504.28
2023-03-16T20:21:28.896Z,98504.91
2023-03-16T20:23:57.253Z,98496.44
2023-03-16T20:26:29.118Z,98480.91
2023-03-16T20:28:57.441Z,98500.38
2023-03-16T20:31:29.760Z,98502.31
2023-03-16T20:33:57.724Z,98502.09
2023-03-16T20:36:26.470Z,98497.38
2023-03-16T20:38:54.471Z,98501.16
2023-03-16T20:41:26.749Z,98492.97
2023-03-16T20:43:55.768Z,98500.19
2023-03-16T20:46:26.315Z,98491.63
2023-03-16T20:48:55.853Z,98499.00
2023-03-16T20:51:24.684Z,98495.69
2023-03-16T20:53:53.184Z,98497.00
2023-03-16T20:56:25.882Z,98498.41
2023-03-16T20:58:56.120Z,98491.09
2023-03-16T21:01:25.142Z,98499.81
2023-03-16T21:03:56.986Z,98494.66
2023-03-16T21:06:27.654Z,98498.81
2023-03-16T21:08:57.434Z,98491.19
2023-03-16T21:11:28.679Z,98499.91
2023-03-16T21:13:57.382Z,98499.34
2023-03-16T21:16:25.472Z,98496.97
2023-03-16T21:18:55.110Z,98489.53
2023-03-16T21:21:24.213Z,98497.34
2023-03-16T21:23:52.164Z,98489.72
2023-03-16T21:26:22.982Z,98488.94
2023-03-16T21:28:57.222Z,98487.50
2023-03-16T21:31:26.528Z,98491.50
2023-03-16T21:33:56.751Z,98483.47
2023-03-16T21:36:26.630Z,98479.53
2023-03-16T21:38:58.018Z,98485.22
2023-03-16T21:41:25.988Z,98485.78
2023-03-16T21:43:54.602Z,98477.06
2023-03-16T21:46:25.556Z,98472.22
2023-03-16T21:48:56.853Z,98459.28
2023-03-16T21:51:30.282Z,98466.13
2023-03-16T21:53:58.532Z,98454.00
2023-03-16T21:56:28.354Z,98450.22
2023-03-16T21:58:56.384Z,98454.38
2023-03-16T22:01:27.743Z,98455.31
2023-03-16T22:04:01.185Z,98451.53
2023-03-16T22:06:29.869Z,98441.09
2023-03-16T22:08:58.642Z,98439.38
2023-03-16T22:11:28.396Z,98440.28
2023-03-16T22:13:57.742Z,98437.47
2023-03-16T22:16:28.102Z,98434.97
2023-03-16T22:18:58.965Z,98417.47
2023-03-16T22:21:32.713Z,98415.28
2023-03-16T22:24:05.910Z,98416.75
2023-03-16T22:26:35.138Z,98422.25
2023-03-16T22:29:03.368Z,98408.69
2023-03-16T22:31:35.041Z,98406.06
2023-03-16T22:34:05.033Z,98411.88
2023-03-16T22:36:34.470Z,98420.53
2023-03-16T22:39:05.513Z,98421.78
2023-03-16T22:41:33.600Z,98425.47
2023-03-16T22:44:02.226Z,98423.78
2023-03-16T22:46:31.041Z,98411.88
2023-03-16T22:48:59.016Z,98423.41
2023-03-16T22:51:33.128Z,98429.63
2023-03-16T22:54:05.315Z,98428.97
2023-03-16T22:56:34.970Z,98442.25
2023-03-16T22:59:05.922Z,98433.22
2023-03-16T23:01:36.032Z,98438.66
2023-03-16T23:04:39.951Z,98431.94
2023-03-16T23:07:12.574Z,98435.75
2023-03-16T23:09:41.457Z,98424.47
2023-03-16T23:12:15.614Z,98433.81
2023-03-16T23:14:43.597Z,98439.75
2023-03-16T23:17:17.991Z,98434.19
2023-03-16T23:19:46.712Z,98436.91
2023-03-16T23:22:17.971Z,98426.66
2023-03-16T23:24:46.485Z,98426.31
2023-03-16T23:27:18.658Z,98424.47
2023-03-16T23:29:47.235Z,98411.28
2023-03-16T23:32:16.917Z,98404.19
2023-03-16T23:34:45.216Z,98394.47
2023-03-16T23:37:13.500Z,98412.66
2023-03-16T23:39:44.007Z,98414.44
2023-03-16T23:42:12.745Z,98411.75
2023-03-16T23:44:41.203Z,98424.28
2023-03-16T23:47:12.155Z,98425.31
2023-03-16T23:49:42.329Z,98419.69
2023-03-16T23:52:12.267Z,98417.06
2023-03-16T23:54:41.235Z,98420.69
2023-03-16T23:57:11.175Z,98417.59
2023-03-16T23:59:39.551Z,98406.88
